Banks, Idaho
Current Conditions -  °F | °C
As of 6:53 AM on Friday 28 Nov 2014 (Local Time) from KBOI Reporting Station
Clear Clear  
Wind Chill: 40°   Ceiling: Unl
Heat Index: 40°   Visibility: 7mi
Dew Point: 39°   Wind: 3mph
Humidity: 97%   Direction: 120°ESE
Pressure: 29.85"   Gusts: NA
Location:  44.08°N, 116.13°W
Report Text: KBOI 281353Z 12003KT 7SM CLR 04/04 A2985 RMK AO2 SLP111 T00440039
Loading
Personal Weather Stations






























Interactive Weather Map New forecast layout! Learn more

10-Day Weather Forecast

Advertisements
Track Severe Weather on mobile